Time;durP1;ratioP1;P1;durP2;ratioP2;P2;SDS_P1;SDS_P2;PMS_P1;PMS_P2;Temp;Humidity;BMP_temperature;BMP_pressure;BME280_temperature;BME280_humidity;BME280_pressure;Samples;Min_cycle;Max_cycle;Signal;HPM_P1;HPM_P2
2021/06/05 00:01:55;;;;;;;6.33;4.20;;;;;;;17.49;59.76;100789.19;2134745;83;31041;-62
2021/06/05 00:04:59;;;;;;;10.10;3.95;;;;;;;17.42;60.20;100773.87;2134899;83;34162;-62
2021/06/05 00:08:01;;;;;;;6.25;4.58;;;;;;;17.35;60.70;100771.70;2102599;83;30673;-62
2021/06/05 00:11:06;;;;;;;8.90;4.92;;;;;;;17.26;60.82;100748.84;2097666;84;27660;-63
2021/06/05 00:14:10;;;;;;;5.15;4.47;;;;;;;17.18;61.20;100745.83;2097698;84;28858;-64
2021/06/05 00:17:12;;;;;;;5.58;4.08;;;;;;;17.10;61.13;100750.43;2098006;84;31142;-63
2021/06/05 00:20:15;;;;;;;6.60;4.40;;;;;;;17.01;61.20;100746.53;2097450;84;33100;-65
2021/06/05 00:23:20;;;;;;;5.00;3.87;;;;;;;16.94;61.61;100750.59;2097606;84;30569;-63
2021/06/05 00:26:23;;;;;;;6.40;4.45;;;;;;;16.83;61.87;100748.62;2098127;84;27752;-64
2021/06/05 00:29:25;;;;;;;5.83;4.03;;;;;;;16.76;61.96;100744.62;2097600;84;29523;-61
2021/06/05 00:32:27;;;;;;;5.08;3.55;;;;;;;16.72;62.43;100748.00;2097560;84;32235;-62
2021/06/05 00:35:31;;;;;;;5.65;3.70;;;;;;;16.68;62.12;100746.50;2097454;84;34377;-64
2021/06/05 00:38:34;;;;;;;6.35;2.90;;;;;;;16.67;62.42;100746.97;2097886;84;29338;-62
2021/06/05 00:41:37;;;;;;;4.97;3.80;;;;;;;16.64;62.47;100747.67;2097984;84;27728;-61
2021/06/05 00:44:39;;;;;;;5.05;3.45;;;;;;;16.65;62.61;100748.05;2097661;84;29532;-62
2021/06/05 00:47:42;;;;;;;4.20;3.80;;;;;;;16.66;62.66;100747.94;2097884;84;31637;-63
2021/06/05 00:50:47;;;;;;;8.03;4.65;;;;;;;16.66;62.65;100743.88;2097525;84;34212;-64
2021/06/05 00:53:49;;;;;;;6.42;4.35;;;;;;;16.69;62.81;100746.88;2098079;84;29313;-62
2021/06/05 00:56:58;;;;;;;5.45;4.42;;;;;;;16.70;62.89;100747.27;2097597;84;27735;-63
2021/06/05 01:00:00;;;;;;;4.53;4.03;;;;;;;16.69;62.81;100740.97;2097928;84;28823;-64
2021/06/05 01:03:04;;;;;;;4.97;3.58;;;;;;;16.72;62.95;100739.88;2097823;84;31836;-65
2021/06/05 01:06:17;;;;;;;6.58;4.28;;;;;;;16.71;62.95;100744.94;2098090;83;33000;-65
2021/06/05 01:10:00;;;;;;;4.60;3.95;;;;;;;16.74;63.01;100753.32;2097342;84;30562;-67
2021/06/05 01:13:00;;;;;;;5.83;4.28;;;;;;;16.74;62.94;100742.50;2068281;84;28277;-62
2021/06/05 01:16:06;;;;;;;4.62;4.10;;;;;;;16.72;62.87;100731.77;2097539;84;29922;-65
2021/06/05 01:19:19;;;;;;;5.20;3.98;;;;;;;16.73;62.97;100721.83;2097919;84;31033;-65
2021/06/05 01:22:47;;;;;;;7.65;4.03;;;;;;;16.74;62.86;100714.94;2096711;84;32954;-64
2021/06/05 01:26:16;;;;;;;4.55;3.98;;;;;;;16.77;62.63;100711.18;2097582;84;30524;-63
2021/06/05 01:29:25;;;;;;;5.37;4.28;;;;;;;16.78;62.58;100711.06;2097911;84;27723;-64
2021/06/05 01:32:28;;;;;;;6.85;6.15;;;;;;;16.80;62.40;100709.12;2081795;84;29859;-64
2021/06/05 01:35:32;;;;;;;7.70;4.67;;;;;;;16.82;62.23;100706.30;2097768;84;31822;-62
2021/06/05 01:38:37;;;;;;;5.37;3.77;;;;;;;16.85;62.27;100705.62;2097739;84;33119;-65
2021/06/05 01:41:40;;;;;;;8.88;5.35;;;;;;;16.88;62.26;100696.41;2097984;84;29332;-63
2021/06/05 01:44:46;;;;;;;5.12;3.83;;;;;;;16.91;62.28;100693.49;2105227;84;27765;-63
2021/06/05 01:47:49;;;;;;;5.60;3.85;;;;;;;16.92;61.84;100689.81;2097947;84;28627;-63
2021/06/05 01:50:53;;;;;;;5.45;3.42;;;;;;;16.95;61.90;100683.34;2081908;84;32257;-63
2021/06/05 01:53:59;;;;;;;8.05;4.25;;;;;;;16.97;61.78;100673.27;2097781;84;33018;-64
2021/06/05 01:57:07;;;;;;;9.23;3.98;;;;;;;16.98;61.62;100670.45;2097917;84;30305;-63
2021/06/05 02:00:14;;;;;;;4.53;3.95;;;;;;;16.99;61.57;100673.53;2097315;84;27654;-64
2021/06/05 02:03:17;;;;;;;5.35;4.47;;;;;;;17.00;61.54;100677.98;2097843;84;28639;-63
2021/06/05 02:06:22;;;;;;;4.28;3.52;;;;;;;17.01;61.51;100684.27;2099561;83;32250;-62
2021/06/05 02:09:27;;;;;;;5.03;4.55;;;;;;;17.01;61.65;100685.13;2134637;83;33010;-64
2021/06/05 02:12:31;;;;;;;5.30;4.25;;;;;;;17.02;61.66;100680.59;2135110;83;30547;-64
2021/06/05 02:15:45;;;;;;;4.95;3.85;;;;;;;17.01;61.66;100680.22;2135066;83;27714;-64
2021/06/05 02:18:52;;;;;;;6.70;4.47;;;;;;;16.98;61.94;100677.22;2134840;83;28490;-62
2021/06/05 02:21:57;;;;;;;6.83;4.30;;;;;;;16.93;62.19;100678.48;2134546;83;32286;-67
2021/06/05 02:25:03;;;;;;;4.80;3.87;;;;;;;16.90;62.32;100666.52;2134853;83;33788;-62
2021/06/05 02:28:06;;;;;;;4.78;3.95;;;;;;;16.86;62.24;100666.77;2134830;83;30113;-62
2021/06/05 02:31:08;;;;;;;7.65;4.42;;;;;;;16.83;62.46;100662.03;2134942;83;27726;-62
2021/06/05 02:34:15;;;;;;;5.67;4.20;;;;;;;16.81;62.44;100657.20;2134519;83;29912;-61
2021/06/05 02:37:22;;;;;;;8.50;4.25;;;;;;;16.74;63.09;100651.36;2135029;83;32125;-61
2021/06/05 02:40:28;;;;;;;4.92;3.98;;;;;;;16.67;62.92;100656.34;2134928;83;33831;-71
2021/06/05 02:43:32;;;;;;;7.55;4.45;;;;;;;16.62;62.93;100657.17;2133163;83;30385;-69
2021/06/05 02:46:37;;;;;;;5.28;4.62;;;;;;;16.58;63.47;100654.29;2133567;83;27710;-70
2021/06/05 02:49:39;;;;;;;5.95;5.12;;;;;;;16.53;63.74;100650.56;2106342;83;28636;-68
2021/06/05 02:52:42;;;;;;;6.47;5.80;;;;;;;16.49;63.81;100657.61;2134716;83;31035;-69
2021/06/05 02:55:45;;;;;;;5.95;5.00;;;;;;;16.45;64.07;100654.77;2134724;83;33760;-69
2021/06/05 02:58:47;;;;;;;5.67;4.80;;;;;;;16.43;64.00;100662.11;2134787;83;29955;-69
2021/06/05 03:01:50;;;;;;;6.58;4.05;;;;;;;16.43;64.19;100654.84;2123264;82;27730;-68
2021/06/05 03:04:52;;;;;;;7.08;5.20;;;;;;;16.41;64.06;100658.14;2119885;83;28646;-70
2021/06/05 03:07:55;;;;;;;5.65;4.55;;;;;;;16.43;64.18;100662.96;2104163;83;31020;-71
2021/06/05 03:10:57;;;;;;;4.87;4.37;;;;;;;16.44;64.23;100671.95;2085001;84;33071;-71
2021/06/05 03:13:59;;;;;;;6.80;4.45;;;;;;;16.46;64.28;100670.02;2085126;85;29365;-66
2021/06/05 03:17:01;;;;;;;5.20;4.20;;;;;;;16.46;64.57;100657.85;2085126;85;27730;-67
2021/06/05 03:20:07;;;;;;;4.78;4.28;;;;;;;16.46;64.43;100660.55;2085147;85;28690;-66
2021/06/05 03:23:12;;;;;;;7.83;4.70;;;;;;;16.44;64.54;100656.58;2085068;85;31004;-62
2021/06/05 03:26:17;;;;;;;9.18;5.25;;;;;;;16.45;64.55;100656.97;2085199;85;32943;-61
2021/06/05 03:29:19;;;;;;;;;;;;;;;16.44;64.59;100660.64;2087348;85;29388;-61
2021/06/05 03:32:21;;;;;;;6.78;4.80;;;;;;;16.45;64.48;100665.08;2085138;85;27678;-61
2021/06/05 03:35:23;;;;;;;6.87;4.45;;;;;;;16.45;64.50;100668.28;2085057;85;29857;-61
2021/06/05 03:38:27;;;;;;;6.25;4.80;;;;;;;16.47;64.44;100692.89;2085024;85;31043;-61
2021/06/05 03:41:29;;;;;;;6.70;4.55;;;;;;;16.51;64.62;100680.89;2084968;85;33767;-61
2021/06/05 03:44:31;;;;;;;8.13;5.10;;;;;;;16.55;64.57;100672.92;2084695;85;30516;-62
2021/06/05 03:47:33;;;;;;;6.33;5.40;;;;;;;16.58;64.57;100674.58;2084813;85;27696;-61
2021/06/05 03:50:42;;;;;;;6.47;4.85;;;;;;;16.63;64.61;100666.98;2085037;85;29885;-61
2021/06/05 03:53:44;;;;;;;9.43;5.00;;;;;;;16.67;64.50;100660.90;2085107;84;31414;-61
2021/06/05 03:56:46;;;;;;;8.83;5.47;;;;;;;16.70;64.60;100674.22;2085275;85;33371;-61
2021/06/05 03:59:52;;;;;;;6.22;5.42;;;;;;;16.78;64.61;100669.62;2084760;84;30568;-61
2021/06/05 04:02:53;;;;;;;7.15;5.37;;;;;;;16.91;64.57;100665.08;2084970;84;28293;-61
2021/06/05 04:05:55;;;;;;;6.90;5.22;;;;;;;17.03;64.39;100670.62;2084783;85;29989;-62
2021/06/05 04:08:58;;;;;;;6.50;4.87;;;;;;;17.18;64.42;100667.31;2084759;83;32285;-61
2021/06/05 04:12:00;;;;;;;7.62;4.90;;;;;;;17.39;64.35;100669.80;2085149;85;34004;-61
2021/06/05 04:15:06;;;;;;;7.42;5.17;;;;;;;17.59;63.98;100658.01;2084817;85;30000;-62
2021/06/05 04:18:15;;;;;;;5.50;4.83;;;;;;;17.79;63.85;100659.23;2084899;85;27599;-61
2021/06/05 04:21:20;;;;;;;5.35;4.85;;;;;;;18.00;63.56;100663.59;2085079;84;28887;-62
2021/06/05 04:24:23;;;;;;;5.58;4.72;;;;;;;18.22;63.30;100656.52;2085162;85;31207;-61
2021/06/05 04:27:25;;;;;;;5.35;4.75;;;;;;;18.65;62.92;100645.55;2085150;85;33974;-61
2021/06/05 04:30:29;;;;;;;10.20;5.50;;;;;;;18.65;62.92;100645.55;2085194;84;30269;-62
2021/06/05 04:33:33;;;;;;;7.50;5.37;;;;;;;18.83;62.45;100643.27;2085529;85;28217;-62
2021/06/05 04:36:35;;;;;;;7.12;5.75;;;;;;;19.04;62.15;100643.42;2085211;84;28650;-63
2021/06/05 04:39:37;;;;;;;5.62;5.03;;;;;;;19.15;61.56;100641.21;2085300;84;31410;-61
2021/06/05 04:42:40;;;;;;;5.45;4.78;;;;;;;19.35;61.62;100640.94;2084937;84;33563;-61
2021/06/05 04:45:44;;;;;;;4.92;4.53;;;;;;;19.68;61.15;100647.83;2085168;85;29322;-61
2021/06/05 04:48:47;;;;;;;5.72;5.12;;;;;;;19.73;60.67;100653.25;2085267;85;27677;-63
2021/06/05 04:51:49;;;;;;;10.78;5.30;;;;;;;19.78;60.46;100650.61;2085212;84;29493;-62
2021/06/05 04:54:51;;;;;;;6.35;5.30;;;;;;;19.82;59.94;100647.54;2085049;85;31055;-61
2021/06/05 04:57:55;;;;;;;7.17;5.58;;;;;;;19.98;60.16;100651.72;2084991;84;34162;-61
2021/06/05 05:00:59;;;;;;;6.90;4.83;;;;;;;20.18;60.22;100650.91;2085152;85;29451;-61
2021/06/05 05:04:02;;;;;;;5.10;4.35;;;;;;;20.27;59.55;100648.39;2085456;85;27713;-62
2021/06/05 05:07:04;;;;;;;5.87;5.28;;;;;;;20.29;59.11;100651.33;2085298;85;28637;-61
2021/06/05 05:10:08;;;;;;;6.53;5.12;;;;;;;20.57;59.52;100646.26;2118788;83;31856;-59
2021/06/05 05:13:13;;;;;;;5.67;4.42;;;;;;;21.55;59.07;100642.66;2121274;83;33123;-56
2021/06/05 05:16:16;;;;;;;6.42;5.75;;;;;;;21.91;57.74;100631.26;2121190;83;30119;-56
2021/06/05 05:19:18;;;;;;;6.17;4.75;;;;;;;21.85;57.14;100632.70;2121317;83;27684;-57
2021/06/05 05:22:20;;;;;;;6.03;5.28;;;;;;;21.74;57.08;100635.56;2121346;83;28081;-56
2021/06/05 05:25:22;;;;;;;6.67;5.20;;;;;;;21.83;57.34;100639.30;2121165;83;31042;-59
2021/06/05 05:28:24;;;;;;;6.92;5.50;;;;;;;22.34;57.22;100647.37;2121151;83;34123;-61
2021/06/05 05:31:28;;;;;;;5.72;4.72;;;;;;;23.17;56.52;100649.50;2121416;83;30446;-61
2021/06/05 05:34:30;;;;;;;6.87;5.83;;;;;;;24.03;55.30;100644.23;2121520;83;27618;-59
2021/06/05 05:37:32;;;;;;;7.45;5.08;;;;;;;24.70;53.73;100642.42;2131667;80;28641;-59
2021/06/05 05:40:35;;;;;;;5.37;4.87;;;;;;;25.47;54.00;100642.20;2135022;82;32222;-56
2021/06/05 05:43:36;;;;;;;7.28;5.70;;;;;;;26.36;52.58;100641.19;2133577;83;32981;-56
2021/06/05 05:46:40;;;;;;;6.25;5.12;;;;;;;26.86;50.98;100641.17;2134493;83;30567;-58
2021/06/05 05:49:42;;;;;;;5.63;5.07;;;;;;;27.20;50.33;100646.05;2135613;82;28365;-56
2021/06/05 05:52:44;;;;;;;7.85;5.58;;;;;;;27.43;49.51;100640.13;2134655;82;30709;-56
2021/06/05 05:55:46;;;;;;;5.80;4.92;;;;;;;27.76;48.93;100645.99;2134965;83;31221;-58
2021/06/05 05:58:51;;;;;;;5.33;4.58;;;;;;;28.01;48.01;100638.97;2134829;83;34065;-68
2021/06/05 06:01:53;;;;;;;5.58;4.87;;;;;;;28.32;47.07;100634.78;2134438;83;29478;-67
2021/06/05 06:04:54;;;;;;;5.15;4.65;;;;;;;28.96;46.58;100629.36;2135145;82;27743;-57
2021/06/05 06:07:57;;;;;;;6.45;4.65;;;;;;;29.51;45.17;100636.52;2131036;83;28624;-56
2021/06/05 06:10:58;;;;;;;5.92;4.70;;;;;;;29.59;43.87;100634.17;2097929;84;32296;-56
2021/06/05 06:14:01;;;;;;;5.58;5.08;;;;;;;29.58;43.29;100634.67;2097786;84;34310;-55
2021/06/05 06:17:04;;;;;;;6.80;4.97;;;;;;;29.29;42.13;100633.65;2118698;83;30184;-56
2021/06/05 06:20:08;;;;;;;7.15;5.03;;;;;;;28.84;42.27;100637.78;2132861;82;27704;-57
2021/06/05 06:23:17;;;;;;;7.15;5.60;;;;;;;28.63;42.96;100640.70;2133581;83;29320;-57
2021/06/05 06:26:25;;;;;;;5.85;4.58;;;;;;;28.61;42.97;100633.67;2133493;83;31155;-60
2021/06/05 06:29:32;;;;;;;6.45;5.28;;;;;;;28.58;42.12;100629.40;2133743;83;33041;-58
2021/06/05 06:32:30;;;;;;;5.72;5.03;;;;;;;28.50;42.25;100642.73;2133794;83;29345;-59
2021/06/05 06:35:34;;;;;;;6.45;4.97;;;;;;;28.51;42.45;100632.55;2133370;82;28201;-63
2021/06/05 06:38:42;;;;;;;5.55;4.97;;;;;;;28.43;41.92;100637.63;2133838;83;28753;-61
2021/06/05 06:41:43;;;;;;;5.65;4.83;;;;;;;28.43;42.13;100637.63;2133561;82;32194;-60
2021/06/05 06:44:45;;;;;;;7.15;5.90;;;;;;;28.64;42.44;100645.17;2133557;83;33951;-59
2021/06/05 06:47:48;;;;;;;6.95;5.67;;;;;;;28.84;41.95;100648.81;2133326;82;30495;-61
2021/06/05 06:50:50;;;;;;;5.28;4.78;;;;;;;28.90;41.77;100638.92;2133733;82;27559;-63
2021/06/05 06:53:53;;;;;;;7.92;5.10;;;;;;;29.26;41.96;100647.32;2133697;83;29883;-58
2021/06/05 06:56:55;;;;;;;5.90;5.28;;;;;;;29.67;41.69;100645.09;2133533;83;32062;-57
2021/06/05 06:59:57;;;;;;;15.78;5.33;;;;;;;30.43;40.93;100641.02;2122244;82;33338;-58
2021/06/05 07:02:59;;;;;;;8.08;5.12;;;;;;;30.87;40.36;100648.73;2084611;85;29721;-57
2021/06/05 07:06:01;;;;;;;7.05;4.80;;;;;;;31.28;40.09;100645.16;2084757;84;27670;-58
2021/06/05 07:09:06;;;;;;;6.22;5.30;;;;;;;31.77;39.65;100636.35;2094704;83;29973;-57
2021/06/05 07:12:09;;;;;;;6.35;5.20;;;;;;;32.47;39.13;100636.58;2100178;83;31079;-57
2021/06/05 07:15:14;;;;;;;5.40;4.73;;;;;;;33.17;38.13;100636.09;2100505;84;33077;-57
2021/06/05 07:18:18;;;;;;;4.90;4.50;;;;;;;33.42;36.37;100638.19;2100348;84;29354;-57
2021/06/05 07:21:20;;;;;;;6.75;4.97;;;;;;;33.69;36.82;100639.96;2100467;84;27704;-59
2021/06/05 07:24:22;;;;;;;5.35;4.85;;;;;;;33.79;35.32;100635.63;2099937;84;29699;-59
2021/06/05 07:27:24;;;;;;;6.37;4.67;;;;;;;34.11;35.38;100632.05;2099878;84;33142;-57
2021/06/05 07:30:26;;;;;;;5.22;4.72;;;;;;;34.21;34.81;100629.62;2099896;84;34293;-58
2021/06/05 07:33:29;;;;;;;5.37;4.87;;;;;;;34.14;34.75;100626.58;2099924;84;30147;-58
2021/06/05 07:36:36;;;;;;;5.53;4.90;;;;;;;34.05;34.74;100621.82;2100232;84;27689;-58
2021/06/05 07:39:38;;;;;;;5.30;4.60;;;;;;;34.24;35.06;100626.95;2100262;84;29860;-57
2021/06/05 07:42:40;;;;;;;4.90;4.33;;;;;;;34.31;34.40;100621.33;2100701;84;31088;-58
2021/06/05 07:45:42;;;;;;;4.60;4.20;;;;;;;34.07;33.87;100616.37;2099959;84;33823;-58
2021/06/05 07:48:44;;;;;;;8.13;5.35;;;;;;;33.97;34.35;100609.59;2100243;84;30617;-58
2021/06/05 07:51:46;;;;;;;8.25;4.87;;;;;;;33.82;33.61;100614.91;2100372;84;27747;-57
2021/06/05 07:54:48;;;;;;;7.35;5.08;;;;;;;33.58;33.89;100619.31;2099971;84;29905;-58
2021/06/05 07:57:50;;;;;;;5.92;4.80;;;;;;;33.62;34.14;100610.83;2100212;84;31210;-58
2021/06/05 08:00:53;;;;;;;5.72;5.22;;;;;;;33.94;34.35;100613.66;2099828;84;33854;-58
2021/06/05 08:03:55;;;;;;;7.35;5.28;;;;;;;34.31;33.71;100617.16;2099873;84;29435;-58
2021/06/05 08:06:57;;;;;;;5.28;4.45;;;;;;;34.59;33.70;100622.27;2099720;84;27697;-58
2021/06/05 08:09:59;;;;;;;8.08;4.65;;;;;;;34.96;33.64;100624.31;2118019;83;29632;-58
2021/06/05 08:13:01;;;;;;;5.75;5.17;;;;;;;35.22;33.03;100609.23;2133392;83;32512;-58
2021/06/05 08:16:05;;;;;;;5.55;5.03;;;;;;;35.42;32.54;100613.67;2143315;82;34182;-58
2021/06/05 08:19:10;;;;;;;6.78;4.10;;;;;;;35.35;31.58;100608.75;2170067;82;29520;-57
2021/06/05 08:22:13;;;;;;;5.42;4.25;;;;;;;35.22;31.23;100616.19;2121822;82;27692;-58
2021/06/05 08:25:15;;;;;;;6.12;4.75;;;;;;;35.21;30.70;100607.53;2120287;83;29052;-58
2021/06/05 08:28:23;;;;;;;7.17;4.22;;;;;;;35.17;30.84;100607.67;2121179;84;31794;-57
2021/06/05 08:31:25;;;;;;;4.53;4.12;;;;;;;35.24;30.58;100609.85;2121380;83;32893;-61
2021/06/05 08:34:27;;;;;;;7.90;5.10;;;;;;;35.06;30.45;100610.69;2120982;83;30229;-58
2021/06/05 08:37:29;;;;;;;5.33;3.80;;;;;;;35.16;30.10;100596.78;2121009;83;27736;-58
2021/06/05 08:40:45;;;;;;;5.00;4.53;;;;;;;35.32;30.60;100596.15;2126844;82;29107;-57
2021/06/05 08:44:12;;;;;;;4.70;4.30;;;;;;;35.40;29.54;100598.59;2078748;85;31053;-56
2021/06/05 08:47:22;;;;;;;6.53;4.60;;;;;;;35.41;29.25;100593.33;2079064;85;32967;-59
2021/06/05 08:50:30;;;;;;;7.87;5.10;;;;;;;35.04;28.33;100593.36;2079069;85;29950;-56
2021/06/05 08:53:32;;;;;;;4.50;4.10;;;;;;;34.66;28.85;100587.45;2079167;85;27637;-58
2021/06/05 08:56:35;;;;;;;6.35;4.70;;;;;;;34.48;28.56;100590.50;2079362;85;29076;-58
2021/06/05 08:59:37;;;;;;;8.00;5.28;;;;;;;34.33;29.47;100588.58;2079239;85;31030;-59
2021/06/05 09:02:40;;;;;;;10.45;4.97;;;;;;;34.36;29.07;100593.14;2078782;85;34469;-58
2021/06/05 09:05:50;;;;;;;5.60;5.10;;;;;;;34.00;29.32;100580.80;2079115;85;29711;-59
2021/06/05 09:08:52;;;;;;;8.93;4.50;;;;;;;33.91;29.94;100578.00;2059773;86;27808;-56
2021/06/05 09:11:54;;;;;;;6.67;5.25;;;;;;;33.73;30.13;100578.19;2060077;86;29943;-58
2021/06/05 09:14:59;;;;;;;5.85;5.35;;;;;;;33.48;30.34;100573.40;2059938;86;32274;-58
2021/06/05 09:18:04;;;;;;;7.60;5.50;;;;;;;33.28;30.31;100575.38;2060634;85;33551;-58
2021/06/05 09:21:07;;;;;;;6.00;4.60;;;;;;;33.12;30.63;100566.48;2059517;86;29341;-58
2021/06/05 09:24:16;;;;;;;5.80;5.12;;;;;;;32.82;30.53;100572.55;2060210;86;27702;-58
2021/06/05 09:27:24;;;;;;;5.97;5.47;;;;;;;32.50;30.34;100570.14;2060508;86;29072;-57
2021/06/05 09:30:37;;;;;;;7.30;5.30;;;;;;;32.02;31.26;100567.86;2060419;86;31042;-59
2021/06/05 09:33:39;;;;;;;7.17;5.72;;;;;;;31.72;31.81;100568.25;2060291;86;33775;-60
2021/06/05 09:36:41;;;;;;;5.37;4.87;;;;;;;31.46;32.52;100562.07;2060100;86;30523;-57
2021/06/05 09:39:50;;;;;;;6.97;6.28;;;;;;;31.29;32.19;100570.75;2060137;86;27764;-58
2021/06/05 09:43:13;;;;;;;6.30;4.83;;;;;;;31.07;32.35;100567.22;2059079;86;28667;-57
2021/06/05 09:46:32;;;;;;;4.85;4.30;;;;;;;30.83;32.11;100567.19;2104669;83;32201;-58
2021/06/05 09:49:45;;;;;;;5.15;4.60;;;;;;;30.43;32.10;100567.75;2134958;83;34014;-57
2021/06/05 09:52:44;;;;;;;5.15;4.47;;;;;;;29.95;32.13;100562.36;2134350;83;29699;-57
2021/06/05 09:55:47;;;;;;;8.00;4.10;;;;;;;29.57;32.95;100566.70;2135055;83;27706;-56
2021/06/05 09:59:06;;;;;;;4.83;3.98;;;;;;;29.30;33.03;100559.98;2135032;83;28889;-57
2021/06/05 10:02:23;;;;;;;4.33;3.87;;;;;;;29.11;33.15;100570.06;2134565;83;32218;-57
2021/06/05 10:05:38;;;;;;;3.58;3.30;;;;;;;28.86;33.13;100574.18;2134563;83;34166;-57
2021/06/05 10:08:42;;;;;;;4.40;4.00;;;;;;;28.56;32.04;100568.08;2134559;83;30386;-57
2021/06/05 10:11:44;;;;;;;4.53;4.10;;;;;;;28.27;32.74;100571.63;2101487;83;27705;-57
2021/06/05 10:15:11;;;;;;;7.03;4.35;;;;;;;28.05;32.06;100564.05;2097608;84;29564;-57
2021/06/05 10:18:20;;;;;;;5.62;3.77;;;;;;;27.87;33.02;100560.24;2097744;84;31031;-58
2021/06/05 10:21:42;;;;;;;4.62;4.15;;;;;;;27.85;33.73;100567.83;2097940;84;34172;-58
2021/06/05 10:25:13;;;;;;;4.87;4.35;;;;;;;27.74;33.94;100562.72;2097039;84;29807;-58
2021/06/05 10:28:22;;;;;;;4.80;4.35;;;;;;;27.65;34.71;100559.17;2097290;83;27724;-57
2021/06/05 10:31:25;;;;;;;4.85;4.37;;;;;;;27.59;35.05;100557.17;2097537;83;28658;-58
2021/06/05 10:34:43;;;;;;;5.57;4.40;;;;;;;27.57;35.41;100549.08;2085157;85;31073;-58
2021/06/05 10:37:45;;;;;;;6.95;4.47;;;;;;;27.51;35.75;100551.70;2094927;83;33038;-59
2021/06/05 10:40:50;;;;;;;7.08;4.72;;;;;;;27.62;35.78;100537.55;2096699;84;30508;-57
2021/06/05 10:43:52;;;;;;;4.15;3.75;;;;;;;27.58;35.87;100557.67;2082492;83;27806;-59
2021/06/05 10:47:17;;;;;;;6.97;4.78;;;;;;;27.62;35.89;100549.05;2097647;84;30055;-57
2021/06/05 10:50:33;;;;;;;5.28;4.70;;;;;;;27.48;36.23;100548.80;2097824;84;32201;-58
2021/06/05 10:53:42;;;;;;;5.45;4.87;;;;;;;27.24;36.89;100545.11;2097765;83;34115;-58
2021/06/05 10:57:20;;;;;;;5.28;4.50;;;;;;;27.02;37.12;100550.05;2114871;83;30184;-58
2021/06/05 11:00:43;;;;;;;4.62;4.22;;;;;;;26.95;36.94;100549.91;2132943;82;27662;-58
2021/06/05 11:03:52;;;;;;;10.58;8.08;;;;;;;26.85;37.36;100539.11;2132924;82;29544;-57
2021/06/05 11:07:14;;;;;;;4.75;4.35;;;;;;;26.97;37.29;100540.44;2132774;83;31166;-57
2021/06/05 11:10:46;;;;;;;4.65;4.12;;;;;;;27.03;37.26;100540.77;2133385;81;32964;-58
2021/06/05 11:13:52;;;;;;;5.60;4.45;;;;;;;27.01;37.07;100537.33;2132926;83;28790;-57
2021/06/05 11:17:08;;;;;;;4.90;4.50;;;;;;;27.06;37.27;100536.25;2133305;82;27700;-57
2021/06/05 11:20:14;;;;;;;;;;;;;;;27.06;37.21;100534.88;2136269;82;30080;-57
2021/06/05 11:23:17;;;;;;;4.80;4.33;;;;;;;27.14;37.63;100543.11;2130899;83;31721;-58
2021/06/05 11:26:41;;;;;;;6.53;4.55;;;;;;;27.23;37.71;100531.55;2097537;84;48349;-57
2021/06/05 11:29:48;;;;;;;6.60;5.22;;;;;;;27.25;37.76;100533.07;2097696;83;29376;-58
2021/06/05 11:33:09;;;;;;;7.20;5.15;;;;;;;27.29;37.86;100533.05;2096833;84;27772;-59
2021/06/05 11:36:44;;;;;;;8.43;4.45;;;;;;;27.25;37.79;100530.32;2098231;83;29295;-58
2021/06/05 11:39:53;;;;;;;8.00;5.10;;;;;;;27.21;37.77;100529.48;2098197;83;31106;-58
2021/06/05 11:42:55;;;;;;;6.62;4.45;;;;;;;27.00;37.59;100530.95;2096573;84;33784;-58
2021/06/05 11:46:24;;;;;;;5.30;4.45;;;;;;;26.86;37.66;100528.45;2097057;84;29375;-57
2021/06/05 11:49:50;;;;;;;6.92;4.42;;;;;;;26.79;37.29;100528.78;2097876;84;27632;-58
2021/06/05 11:53:06;;;;;;;5.03;4.10;;;;;;;26.68;37.18;100513.03;2097580;83;29703;-58
2021/06/05 11:56:09;;;;;;;8.68;5.20;;;;;;;26.59;37.05;100509.95;2095949;84;30550;-58
2021/06/05 11:59:37;;;;;;;3.90;3.47;;;;;;;26.65;37.13;100508.37;2097847;84;33766;-58
2021/06/05 12:02:46;;;;;;;4.40;3.83;;;;;;;26.78;37.00;100507.83;2096479;84;29717;-57
2021/06/05 12:05:49;;;;;;;4.65;3.95;;;;;;;26.91;36.81;100505.39;2083080;84;27729;-57
2021/06/05 12:09:12;;;;;;;7.85;5.35;;;;;;;27.04;36.70;100505.36;2098167;83;28490;-57
2021/06/05 12:12:14;;;;;;;6.85;5.00;;;;;;;27.01;36.41;100502.96;2138713;82;31407;-57
2021/06/05 12:15:21;;;;;;;4.20;3.90;;;;;;;26.97;36.54;100502.47;2169703;81;33825;-57
2021/06/05 12:18:27;;;;;;;4.80;4.30;;;;;;;26.99;36.11;100505.37;2089853;85;29337;-57
2021/06/05 12:21:36;;;;;;;6.62;4.60;;;;;;;27.00;36.64;100492.47;2169676;82;27674;-57
2021/06/05 12:24:40;;;;;;;5.25;4.75;;;;;;;27.05;36.47;100488.67;2170118;82;28821;-57
2021/06/05 12:27:43;;;;;;;7.03;5.22;;;;;;;26.97;36.34;100488.72;2170177;81;32008;-57
2021/06/05 12:30:47;;;;;;;6.62;5.90;;;;;;;26.84;37.06;100494.79;2169663;82;35143;-59
2021/06/05 12:34:04;;;;;;;;;;;;;;;26.68;37.40;100495.16;2092540;85;29332;-58
2021/06/05 12:37:17;;;;;;;6.45;4.60;;;;;;;26.59;37.58;100492.62;2089323;85;27718;-57
2021/06/05 12:40:48;;;;;;;7.20;5.25;;;;;;;26.49;37.60;100488.16;2089893;84;29906;-58
2021/06/05 12:43:49;;;;;;;5.10;4.58;;;;;;;26.44;37.88;100485.11;2133711;83;31525;-58
2021/06/05 12:46:51;;;;;;;5.37;4.67;;;;;;;26.39;38.04;100481.49;2134637;83;32978;-59
2021/06/05 12:49:54;;;;;;;5.80;4.45;;;;;;;26.38;37.96;100485.80;2134615;83;30547;-57
2021/06/05 12:52:57;;;;;;;6.92;4.78;;;;;;;26.39;36.93;100474.63;2135110;83;27760;-57
2021/06/05 12:56:03;;;;;;;7.55;4.90;;;;;;;26.41;37.02;100466.23;2134863;83;29525;-57
2021/06/05 12:59:11;;;;;;;7.10;4.90;;;;;;;26.46;37.20;100458.82;2134120;83;31022;-58
2021/06/05 13:02:30;;;;;;;4.53;4.17;;;;;;;26.55;37.24;100457.78;2168623;82;33645;-58
2021/06/05 13:05:34;;;;;;;8.78;4.62;;;;;;;26.62;37.06;100457.92;2134156;82;29336;-57
2021/06/05 13:08:39;;;;;;;8.80;5.25;;;;;;;26.64;37.14;100457.23;2127537;82;27983;-59
2021/06/05 13:11:46;;;;;;;5.42;4.92;;;;;;;26.69;37.55;100459.78;2134776;82;28643;-58
2021/06/05 13:15:12;;;;;;;6.58;5.20;;;;;;;26.71;37.36;100454.63;2133871;83;31072;-58
2021/06/05 13:18:31;;;;;;;5.90;4.42;;;;;;;26.63;37.33;100448.64;2134132;83;33390;-58
2021/06/05 13:21:33;;;;;;;8.20;4.70;;;;;;;26.53;37.22;100443.36;2134900;83;29518;-57
2021/06/05 13:24:36;;;;;;;5.60;4.50;;;;;;;26.49;37.25;100441.45;2134797;83;27639;-57
2021/06/05 13:28:03;;;;;;;5.67;4.87;;;;;;;26.47;37.07;100443.55;2135399;83;28700;-57
2021/06/05 13:31:05;;;;;;;5.42;4.28;;;;;;;26.45;37.02;100433.75;2129199;83;32101;-57
2021/06/05 13:34:27;;;;;;;5.05;4.00;;;;;;;26.37;36.36;100431.89;2134526;83;34018;-56
2021/06/05 13:37:35;;;;;;;5.22;4.10;;;;;;;26.28;36.44;100429.69;2134879;83;29408;-57
2021/06/05 13:40:36;;;;;;;5.10;3.95;;;;;;;26.22;36.41;100428.51;2135004;83;27707;-58
2021/06/05 13:43:39;;;;;;;4.47;3.72;;;;;;;26.25;36.50;100431.41;2134685;83;29220;-57
2021/06/05 13:46:41;;;;;;;6.22;4.08;;;;;;;26.22;35.72;100444.98;2134644;83;31117;-60
2021/06/05 13:49:45;;;;;;;9.48;8.38;;;;;;;26.14;36.06;100437.28;2134516;83;34188;-57
2021/06/05 13:52:48;;;;;;;6.47;4.77;;;;;;;26.17;36.13;100434.19;2135284;83;29424;-57
2021/06/05 13:55:55;;;;;;;6.05;4.70;;;;;;;26.22;36.18;100435.38;2135434;83;28086;-67
2021/06/05 13:58:57;;;;;;;4.62;4.22;;;;;;;26.32;36.17;100434.30;2133844;83;29697;-65
2021/06/05 14:01:59;;;;;;;7.17;4.30;;;;;;;26.45;35.85;100431.01;2134879;83;32088;-65
2021/06/05 14:05:00;;;;;;;4.83;3.37;;;;;;;26.54;35.76;100428.05;2134678;83;33741;-58
2021/06/05 14:08:07;;;;;;;4.80;4.17;;;;;;;26.65;35.85;100422.69;2134986;82;29182;-57
2021/06/05 14:11:16;;;;;;;3.83;3.52;;;;;;;26.78;35.65;100424.86;2134190;83;27652;-60
2021/06/05 14:14:17;;;;;;;4.30;3.42;;;;;;;26.88;35.52;100423.30;2106763;83;28982;-58
2021/06/05 14:17:19;;;;;;;4.10;3.70;;;;;;;27.05;35.32;100422.67;2134795;83;31925;-59
2021/06/05 14:20:25;;;;;;;4.78;3.27;;;;;;;27.16;34.53;100420.03;2134782;83;33786;-58
2021/06/05 14:23:29;;;;;;;4.80;3.67;;;;;;;27.14;34.33;100425.69;2134822;83;30161;-59
2021/06/05 14:26:31;;;;;;;5.12;3.80;;;;;;;27.15;34.06;100422.44;2135038;83;27616;-57
2021/06/05 14:29:33;;;;;;;6.17;4.75;;;;;;;27.15;34.05;100423.81;2134540;83;29908;-57